createdAt,value
2018-06-06T00:01:32.681Z,15.50
2018-06-06T00:04:00.277Z,15.50
2018-06-06T00:06:27.897Z,15.40
2018-06-06T00:08:55.541Z,15.40
2018-06-06T00:11:23.156Z,15.40
2018-06-06T00:13:50.804Z,15.30
2018-06-06T00:16:18.450Z,15.40
2018-06-06T00:18:46.073Z,15.30
2018-06-06T00:21:13.705Z,15.20
2018-06-06T00:23:41.277Z,15.10
2018-06-06T00:26:08.917Z,15.20
2018-06-06T00:28:36.569Z,15.30
2018-06-06T00:31:04.136Z,15.50
2018-06-06T00:33:31.737Z,15.60
2018-06-06T00:35:59.364Z,15.70
2018-06-06T00:38:26.953Z,15.90
2018-06-06T00:40:54.655Z,16.00
2018-06-06T00:43:22.291Z,15.80
2018-06-06T00:45:50.376Z,15.70
2018-06-06T00:48:17.954Z,15.70
2018-06-06T00:50:45.604Z,15.70
2018-06-06T00:53:13.223Z,15.80
2018-06-06T00:55:40.848Z,15.80
2018-06-06T00:58:08.524Z,15.80
2018-06-06T01:00:36.188Z,15.90
2018-06-06T01:03:03.846Z,15.90
2018-06-06T01:05:31.490Z,15.90
2018-06-06T01:07:59.208Z,15.90
2018-06-06T01:10:26.890Z,15.90
2018-06-06T01:12:54.573Z,15.80
2018-06-06T01:15:22.206Z,15.90
2018-06-06T01:17:49.868Z,15.90
2018-06-06T01:22:45.185Z,15.90
2018-06-06T01:25:12.761Z,15.90
2018-06-06T01:27:40.371Z,15.90
2018-06-06T01:30:07.927Z,15.80
2018-06-06T01:32:35.515Z,15.70
2018-06-06T01:35:03.117Z,15.60
2018-06-06T01:39:58.423Z,15.70
2018-06-06T01:42:26.009Z,15.60
2018-06-06T01:44:53.620Z,15.60
2018-06-06T01:47:21.239Z,15.60
2018-06-06T01:49:48.818Z,15.50
2018-06-06T01:52:16.485Z,15.40
2018-06-06T01:54:44.114Z,15.20
2018-06-06T01:57:11.807Z,15.00
2018-06-06T01:59:39.428Z,14.90
2018-06-06T02:02:07.050Z,14.80
2018-06-06T02:04:34.658Z,14.80
2018-06-06T02:07:02.266Z,14.70
2018-06-06T02:09:29.914Z,14.80
2018-06-06T02:11:57.581Z,14.80
2018-06-06T02:14:25.209Z,14.80
2018-06-06T02:16:52.889Z,14.80
2018-06-06T02:19:20.467Z,14.80
2018-06-06T02:21:48.078Z,14.70
2018-06-06T02:24:15.712Z,14.70
2018-06-06T02:26:45.330Z,14.80
2018-06-06T02:29:12.887Z,14.80
2018-06-06T02:31:40.437Z,14.70
2018-06-06T02:34:08.047Z,14.70
2018-06-06T02:36:35.702Z,14.70
2018-06-06T02:39:06.117Z,14.60
2018-06-06T02:41:33.762Z,14.60
2018-06-06T02:44:01.444Z,14.50
2018-06-06T02:46:29.135Z,14.50
2018-06-06T02:48:56.701Z,14.50
2018-06-06T02:51:24.361Z,14.50
2018-06-06T02:53:52.003Z,14.50
2018-06-06T02:56:19.631Z,14.50
2018-06-06T02:58:47.241Z,14.50
2018-06-06T03:01:14.904Z,14.50
2018-06-06T03:03:42.450Z,14.50
2018-06-06T03:06:10.122Z,14.50
2018-06-06T03:08:37.785Z,14.50
2018-06-06T03:11:05.342Z,14.50
2018-06-06T03:16:00.873Z,14.60
2018-06-06T03:18:28.487Z,14.70
2018-06-06T03:20:56.057Z,14.70
2018-06-06T03:23:23.704Z,14.90
2018-06-06T03:25:51.630Z,15.00
2018-06-06T03:28:19.335Z,15.00
2018-06-06T03:30:46.954Z,15.10
2018-06-06T03:33:14.607Z,15.20
2018-06-06T03:38:16.833Z,15.30
2018-06-06T03:40:44.460Z,15.30
2018-06-06T03:43:12.128Z,15.40
2018-06-06T03:45:39.724Z,15.50
2018-06-06T03:48:07.350Z,15.40
2018-06-06T03:50:35.004Z,15.60
2018-06-06T03:53:02.740Z,15.60
2018-06-06T03:55:30.362Z,15.60
2018-06-06T03:57:57.993Z,15.60
2018-06-06T04:00:25.587Z,15.70
2018-06-06T04:02:53.217Z,15.70
2018-06-06T04:05:21.723Z,15.70
2018-06-06T04:07:49.357Z,15.80
2018-06-06T04:10:16.985Z,15.80
2018-06-06T04:12:44.579Z,15.70
2018-06-06T04:15:12.175Z,15.80
2018-06-06T04:17:39.775Z,15.80
2018-06-06T04:20:07.371Z,15.80
2018-06-06T04:22:34.975Z,15.90
2018-06-06T04:25:02.595Z,16.10
2018-06-06T04:27:30.214Z,16.10
2018-06-06T04:29:57.910Z,16.30
2018-06-06T04:32:25.510Z,16.70
2018-06-06T04:34:53.136Z,16.80
2018-06-06T04:37:20.773Z,17.00
2018-06-06T04:39:48.447Z,17.00
2018-06-06T04:42:15.992Z,16.80
2018-06-06T04:44:43.629Z,17.10
2018-06-06T04:47:11.284Z,17.30
2018-06-06T04:49:38.865Z,17.40
2018-06-06T04:52:06.510Z,17.40
2018-06-06T04:54:34.094Z,17.50
2018-06-06T04:57:01.765Z,17.60
2018-06-06T04:59:29.393Z,17.70
2018-06-06T05:01:56.981Z,17.30
2018-06-06T05:04:24.628Z,17.50
2018-06-06T05:06:52.271Z,17.70
2018-06-06T05:09:19.901Z,17.60
2018-06-06T05:11:47.537Z,17.40
2018-06-06T05:14:15.091Z,17.40
2018-06-06T05:16:42.713Z,17.70
2018-06-06T05:19:10.341Z,17.90
2018-06-06T05:21:37.928Z,18.30
2018-06-06T05:24:05.504Z,18.40
2018-06-06T05:26:33.132Z,18.30
2018-06-06T05:29:00.794Z,18.60
2018-06-06T05:31:28.409Z,18.30
2018-06-06T05:33:56.028Z,18.40
2018-06-06T05:36:23.676Z,18.70
2018-06-06T05:38:51.285Z,18.60
2018-06-06T05:41:18.944Z,18.50
2018-06-06T05:43:46.608Z,18.50
2018-06-06T05:46:14.289Z,18.40
2018-06-06T05:48:41.917Z,18.40
2018-06-06T05:51:09.498Z,18.70
2018-06-06T05:53:37.093Z,19.00
2018-06-06T05:56:04.633Z,19.00
2018-06-06T05:58:32.260Z,19.00
2018-06-06T06:00:59.923Z,18.90
2018-06-06T06:03:27.514Z,18.50
2018-06-06T06:05:55.173Z,18.30
2018-06-06T06:08:22.792Z,18.60
2018-06-06T06:10:50.382Z,18.70
2018-06-06T06:13:18.074Z,18.60
2018-06-06T06:15:45.706Z,18.60
2018-06-06T06:18:13.394Z,18.50
2018-06-06T06:20:41.010Z,18.70
2018-06-06T06:23:08.648Z,18.80
2018-06-06T06:25:36.386Z,19.10
2018-06-06T06:28:04.449Z,19.10
2018-06-06T06:30:32.150Z,19.30
2018-06-06T06:32:59.794Z,19.00
2018-06-06T06:35:27.423Z,19.30
2018-06-06T06:37:55.077Z,19.20
2018-06-06T06:40:22.696Z,19.50
2018-06-06T06:42:50.299Z,19.40
2018-06-06T06:45:17.929Z,19.50
2018-06-06T06:47:45.554Z,19.60
2018-06-06T06:50:13.163Z,19.80
2018-06-06T06:52:40.750Z,19.80
2018-06-06T06:55:08.417Z,19.90
2018-06-06T06:57:36.071Z,19.90
2018-06-06T07:00:04.597Z,20.00
2018-06-06T07:02:32.254Z,19.90
2018-06-06T07:04:59.944Z,20.10
2018-06-06T07:07:27.607Z,20.20
2018-06-06T07:09:55.204Z,20.60
2018-06-06T07:12:22.843Z,21.00
2018-06-06T07:14:50.498Z,20.80
2018-06-06T07:17:18.098Z,20.40
2018-06-06T07:19:45.699Z,20.30
2018-06-06T07:22:13.324Z,20.80
2018-06-06T07:24:40.973Z,20.40
2018-06-06T07:27:08.579Z,20.80
2018-06-06T07:29:36.190Z,21.00
2018-06-06T07:32:03.808Z,20.80
2018-06-06T07:34:31.434Z,21.10
2018-06-06T07:36:59.048Z,21.30
2018-06-06T07:39:26.714Z,21.10
2018-06-06T07:41:54.311Z,21.20
2018-06-06T07:44:21.867Z,20.80
2018-06-06T07:46:49.569Z,21.20
2018-06-06T07:49:17.132Z,21.20
2018-06-06T07:51:44.834Z,21.00
2018-06-06T07:54:12.488Z,21.40
2018-06-06T07:56:40.133Z,21.30
2018-06-06T07:59:07.784Z,21.00
2018-06-06T08:01:35.414Z,21.30
2018-06-06T08:04:03.027Z,21.20
2018-06-06T08:06:30.645Z,21.10
2018-06-06T08:08:58.258Z,21.30
2018-06-06T08:11:25.909Z,21.20
2018-06-06T08:13:53.438Z,21.50
2018-06-06T08:16:20.914Z,21.80
2018-06-06T08:18:48.543Z,22.10
2018-06-06T08:21:16.162Z,22.00
2018-06-06T08:23:43.792Z,21.90
2018-06-06T08:26:11.509Z,21.70
2018-06-06T08:28:39.145Z,21.80
2018-06-06T08:31:06.750Z,22.00
2018-06-06T08:33:34.311Z,22.30
2018-06-06T08:36:01.962Z,22.00
2018-06-06T08:38:29.571Z,21.50
2018-06-06T08:40:57.249Z,21.70
2018-06-06T08:43:24.915Z,21.70
2018-06-06T08:45:52.539Z,21.70
2018-06-06T08:48:20.175Z,22.10
2018-06-06T08:50:47.808Z,22.20
2018-06-06T08:53:15.453Z,22.10
2018-06-06T08:55:43.095Z,22.50
2018-06-06T08:58:10.675Z,22.20
2018-06-06T09:00:38.344Z,22.40
2018-06-06T09:03:06.023Z,22.70
2018-06-06T09:05:33.584Z,22.80
2018-06-06T09:08:01.202Z,23.00
2018-06-06T09:10:28.784Z,23.40
2018-06-06T09:12:56.330Z,23.70
2018-06-06T09:15:23.957Z,24.00
2018-06-06T09:17:51.531Z,23.70
2018-06-06T09:20:19.105Z,23.60
2018-06-06T09:22:46.687Z,23.90
2018-06-06T09:25:14.225Z,23.80
2018-06-06T09:27:41.859Z,23.90
2018-06-06T09:30:09.447Z,24.60
2018-06-06T09:32:37.113Z,24.50
2018-06-06T09:35:04.727Z,24.70
2018-06-06T09:37:32.287Z,24.30
2018-06-06T09:39:59.885Z,24.90
2018-06-06T09:42:27.483Z,24.10
2018-06-06T09:44:55.445Z,24.30
2018-06-06T09:47:23.051Z,24.40
2018-06-06T09:49:50.679Z,24.60
2018-06-06T09:52:18.243Z,24.60
2018-06-06T09:54:45.799Z,24.50
2018-06-06T09:57:13.374Z,24.40
2018-06-06T09:59:40.887Z,24.50
2018-06-06T10:02:08.523Z,24.70
2018-06-06T10:04:36.094Z,24.70
2018-06-06T10:07:03.777Z,24.90
2018-06-06T10:09:31.360Z,24.70
2018-06-06T10:11:58.952Z,24.80
2018-06-06T10:14:26.515Z,25.10
2018-06-06T10:16:54.080Z,24.80
2018-06-06T10:19:21.673Z,24.80
2018-06-06T10:21:49.279Z,25.10
2018-06-06T10:24:17.198Z,25.10
2018-06-06T10:26:44.808Z,24.80
2018-06-06T10:29:13.946Z,24.80
2018-06-06T10:31:41.496Z,24.60
2018-06-06T10:34:09.072Z,24.70
2018-06-06T10:36:36.760Z,24.50
2018-06-06T10:39:05.976Z,24.70
2018-06-06T10:41:33.745Z,25.10
2018-06-06T10:44:01.352Z,25.10
2018-06-06T10:46:29.947Z,25.20
2018-06-06T10:48:57.554Z,25.20
2018-06-06T10:51:25.192Z,25.30
2018-06-06T10:53:52.822Z,25.20
2018-06-06T11:01:15.720Z,25.60
2018-06-06T11:03:43.300Z,25.40
2018-06-06T11:06:10.898Z,25.30
2018-06-06T11:08:38.482Z,25.70
2018-06-06T11:11:06.084Z,25.60
2018-06-06T11:13:33.682Z,25.60
2018-06-06T11:16:01.308Z,25.40
2018-06-06T11:18:28.874Z,25.60
2018-06-06T11:20:56.520Z,25.70
2018-06-06T11:23:24.341Z,25.50
2018-06-06T11:25:52.108Z,25.80
2018-06-06T11:28:19.720Z,26.00
2018-06-06T11:30:47.297Z,26.10
2018-06-06T11:33:14.864Z,26.20
2018-06-06T11:35:42.528Z,26.20
2018-06-06T11:38:10.161Z,26.30
2018-06-06T11:40:37.769Z,26.50
2018-06-06T11:43:05.407Z,26.80
2018-06-06T11:45:32.997Z,27.00
2018-06-06T11:48:00.643Z,27.10
2018-06-06T11:50:29.183Z,27.30
2018-06-06T11:52:56.758Z,27.40
2018-06-06T11:55:24.360Z,27.90
2018-06-06T11:57:51.964Z,28.70
2018-06-06T12:00:19.571Z,29.70
2018-06-06T12:02:48.148Z,30.80
2018-06-06T12:05:15.775Z,32.60
2018-06-06T12:07:43.420Z,33.40
2018-06-06T12:12:38.658Z,34.90
2018-06-06T12:15:06.278Z,36.80
2018-06-06T12:17:33.944Z,37.30
2018-06-06T12:20:01.594Z,38.50
2018-06-06T12:22:29.203Z,37.70
2018-06-06T12:24:56.799Z,38.00
2018-06-06T12:27:24.459Z,37.90
2018-06-06T12:29:52.153Z,39.50
2018-06-06T12:32:19.779Z,40.90
2018-06-06T12:34:47.394Z,40.60
2018-06-06T12:37:15.058Z,40.90
2018-06-06T12:39:42.647Z,40.30
2018-06-06T12:42:10.196Z,40.30
2018-06-06T12:44:37.773Z,41.30
2018-06-06T12:47:05.454Z,41.20
2018-06-06T12:49:33.142Z,43.60
2018-06-06T12:52:00.742Z,42.50
2018-06-06T12:54:28.369Z,41.50
2018-06-06T12:56:55.974Z,41.10
2018-06-06T12:59:23.613Z,40.90
2018-06-06T13:01:51.275Z,41.70
2018-06-06T13:04:18.861Z,40.10
2018-06-06T13:06:46.449Z,40.90
2018-06-06T13:09:14.137Z,41.40
2018-06-06T13:11:41.737Z,41.20
2018-06-06T13:14:09.292Z,42.80
2018-06-06T13:16:36.945Z,42.20
2018-06-06T13:21:32.225Z,42.00
2018-06-06T13:23:59.772Z,41.20
2018-06-06T13:26:27.372Z,40.90
2018-06-06T13:28:55.508Z,42.80
2018-06-06T13:31:23.097Z,44.30
2018-06-06T13:33:50.705Z,42.50
2018-06-06T13:36:18.332Z,43.80
2018-06-06T13:38:45.968Z,43.50
2018-06-06T13:41:13.613Z,43.00
2018-06-06T13:43:41.203Z,43.40
2018-06-06T13:46:08.796Z,42.30
2018-06-06T13:48:36.346Z,42.50
2018-06-06T13:51:03.911Z,42.20
2018-06-06T13:53:31.451Z,43.00
2018-06-06T13:55:59.014Z,42.60
2018-06-06T13:58:26.561Z,42.80
2018-06-06T14:00:54.157Z,42.90
2018-06-06T14:03:21.802Z,43.60
2018-06-06T14:05:49.451Z,43.50
2018-06-06T14:08:17.094Z,43.90
2018-06-06T14:10:44.727Z,43.20
2018-06-06T14:13:12.313Z,44.20
2018-06-06T14:15:39.949Z,44.80
2018-06-06T14:18:07.558Z,45.20
2018-06-06T14:20:35.191Z,43.60
2018-06-06T14:23:02.848Z,44.80
2018-06-06T14:25:30.439Z,45.20
2018-06-06T14:27:58.023Z,44.10
2018-06-06T14:30:25.646Z,43.30
2018-06-06T14:32:53.210Z,42.40
2018-06-06T14:35:20.796Z,42.80
2018-06-06T14:37:48.411Z,43.10
2018-06-06T14:40:16.029Z,44.60
2018-06-06T14:42:43.614Z,42.60
2018-06-06T14:45:11.199Z,43.70
2018-06-06T14:47:38.792Z,44.80
2018-06-06T14:50:06.467Z,44.70
2018-06-06T14:52:34.109Z,44.80
2018-06-06T14:55:01.680Z,44.20
2018-06-06T14:57:29.352Z,45.80
2018-06-06T14:59:57.057Z,45.20
2018-06-06T15:02:24.633Z,45.80
2018-06-06T15:04:52.214Z,44.20
2018-06-06T15:07:19.806Z,44.80
2018-06-06T15:09:47.416Z,44.00
2018-06-06T15:12:15.027Z,44.70
2018-06-06T15:14:42.652Z,44.60
2018-06-06T15:17:10.298Z,44.60
2018-06-06T15:19:37.881Z,44.10
2018-06-06T15:22:05.483Z,43.10
2018-06-06T15:24:33.052Z,42.90
2018-06-06T15:27:00.710Z,44.70
2018-06-06T15:29:28.360Z,44.00
2018-06-06T15:31:56.046Z,44.40
2018-06-06T15:34:23.642Z,44.40
2018-06-06T15:36:52.058Z,44.60
2018-06-06T15:39:19.715Z,44.50
2018-06-06T15:41:47.344Z,44.40
2018-06-06T15:44:14.937Z,43.20
2018-06-06T15:46:42.606Z,42.70
2018-06-06T15:49:10.229Z,42.60
2018-06-06T15:51:38.642Z,43.50
2018-06-06T15:54:06.317Z,43.00
2018-06-06T15:56:33.964Z,44.00
2018-06-06T15:59:01.611Z,45.00
2018-06-06T16:01:29.183Z,43.60
2018-06-06T16:03:56.741Z,41.70
2018-06-06T16:06:24.305Z,41.20
2018-06-06T16:08:51.957Z,41.20
2018-06-06T16:11:19.590Z,41.40
2018-06-06T16:13:47.238Z,40.10
2018-06-06T16:16:14.907Z,41.50
2018-06-06T16:18:42.550Z,42.70
2018-06-06T16:21:10.202Z,42.10
2018-06-06T16:26:05.550Z,41.40
2018-06-06T16:28:33.202Z,40.60
2018-06-06T16:31:00.905Z,40.50
2018-06-06T16:33:28.676Z,39.20
2018-06-06T16:35:56.257Z,38.40
2018-06-06T16:38:23.943Z,39.90
2018-06-06T16:40:51.561Z,40.60
2018-06-06T16:43:19.257Z,38.70
2018-06-06T16:45:46.962Z,40.00
2018-06-06T16:48:14.650Z,40.10
2018-06-06T16:50:42.321Z,37.70
2018-06-06T16:53:09.947Z,39.00
2018-06-06T16:55:37.585Z,38.10
2018-06-06T16:58:05.308Z,38.60
2018-06-06T17:00:33.011Z,37.30
2018-06-06T17:03:00.684Z,36.10
2018-06-06T17:05:28.382Z,36.60
2018-06-06T17:07:56.089Z,38.60
2018-06-06T17:10:23.777Z,37.70
2018-06-06T17:12:51.383Z,38.20
2018-06-06T17:15:19.047Z,36.70
2018-06-06T17:17:46.704Z,37.00
2018-06-06T17:20:14.330Z,37.80
2018-06-06T17:22:42.117Z,36.60
2018-06-06T17:25:09.757Z,36.50
2018-06-06T17:27:37.388Z,35.30
2018-06-06T17:30:05.022Z,34.60
2018-06-06T17:32:32.670Z,34.50
2018-06-06T17:35:00.272Z,35.10
2018-06-06T17:39:55.599Z,35.40
2018-06-06T17:42:23.276Z,36.20
2018-06-06T17:44:50.902Z,35.10
2018-06-06T17:47:18.561Z,33.10
2018-06-06T17:49:46.281Z,33.30
2018-06-06T17:52:13.951Z,33.20
2018-06-06T17:54:41.617Z,33.40
2018-06-06T17:57:09.315Z,32.90
2018-06-06T17:59:37.037Z,31.90
2018-06-06T18:02:07.575Z,32.40
2018-06-06T18:04:35.287Z,32.60
2018-06-06T18:07:03.104Z,31.30
2018-06-06T18:09:30.829Z,31.30
2018-06-06T18:11:58.487Z,30.90
2018-06-06T18:14:26.188Z,30.90
2018-06-06T18:16:53.859Z,31.40
2018-06-06T18:19:21.546Z,31.60
2018-06-06T18:21:49.222Z,30.90
2018-06-06T18:24:16.898Z,30.20
2018-06-06T18:26:44.655Z,29.70
2018-06-06T18:29:12.343Z,28.30
2018-06-06T18:31:39.954Z,27.50
2018-06-06T18:34:07.591Z,26.80
2018-06-06T18:36:35.262Z,26.20
2018-06-06T18:39:05.455Z,25.90
2018-06-06T18:41:33.015Z,25.20
2018-06-06T18:44:00.624Z,25.00
2018-06-06T18:46:28.226Z,24.50
2018-06-06T18:48:55.826Z,24.20
2018-06-06T18:51:23.494Z,23.90
2018-06-06T18:53:51.123Z,23.80
2018-06-06T18:56:18.750Z,23.50
2018-06-06T18:58:46.433Z,23.30
2018-06-06T19:01:14.167Z,23.00
2018-06-06T19:03:41.813Z,23.00
2018-06-06T19:06:09.594Z,22.90
2018-06-06T19:08:37.779Z,22.70
2018-06-06T19:11:05.437Z,22.60
2018-06-06T19:13:33.113Z,22.40
2018-06-06T19:16:00.749Z,22.20
2018-06-06T19:18:28.440Z,22.20
2018-06-06T19:20:56.125Z,22.20
2018-06-06T19:23:23.798Z,22.10
2018-06-06T19:25:51.528Z,22.00
2018-06-06T19:28:19.198Z,22.00
2018-06-06T19:30:46.790Z,21.90
2018-06-06T19:33:14.472Z,21.60
2018-06-06T19:35:42.116Z,21.50
2018-06-06T19:38:09.890Z,21.50
2018-06-06T19:40:37.466Z,21.40
2018-06-06T19:43:05.056Z,21.30
2018-06-06T19:45:32.671Z,21.20
2018-06-06T19:48:00.244Z,21.10
2018-06-06T19:50:28.207Z,21.10
2018-06-06T19:52:55.928Z,21.00
2018-06-06T19:57:51.358Z,20.90
2018-06-06T20:00:19.264Z,20.80
2018-06-06T20:02:46.920Z,20.70
2018-06-06T20:05:14.772Z,20.70
2018-06-06T20:10:10.127Z,20.50
2018-06-06T20:12:37.765Z,20.50
2018-06-06T20:15:05.481Z,20.40
2018-06-06T20:17:33.156Z,20.40
2018-06-06T20:20:00.829Z,20.30
2018-06-06T20:22:28.529Z,20.20
2018-06-06T20:24:56.126Z,20.20
2018-06-06T20:27:23.901Z,20.10
2018-06-06T20:29:51.523Z,20.10
2018-06-06T20:32:19.076Z,20.10
2018-06-06T20:34:46.659Z,20.00
2018-06-06T20:37:14.320Z,19.90
2018-06-06T20:39:41.942Z,19.80
2018-06-06T20:42:09.574Z,19.80
2018-06-06T20:44:37.164Z,19.70
2018-06-06T20:47:04.804Z,19.70
2018-06-06T20:49:32.748Z,19.60
2018-06-06T20:52:00.301Z,19.60
2018-06-06T20:54:27.905Z,19.50
2018-06-06T20:56:55.475Z,19.50
2018-06-06T20:59:23.156Z,19.50
2018-06-06T21:01:50.865Z,19.40
2018-06-06T21:04:18.495Z,19.30
2018-06-06T21:06:46.155Z,19.30
2018-06-06T21:09:13.846Z,19.20
2018-06-06T21:11:41.513Z,19.20
2018-06-06T21:14:09.101Z,19.10
2018-06-06T21:16:36.725Z,19.10
2018-06-06T21:19:04.345Z,19.00
2018-06-06T21:21:32.017Z,19.00
2018-06-06T21:23:59.598Z,18.90
2018-06-06T21:26:27.155Z,18.90
2018-06-06T21:28:54.762Z,18.80
2018-06-06T21:31:22.302Z,18.70
2018-06-06T21:33:49.898Z,18.60
2018-06-06T21:36:17.542Z,18.60
2018-06-06T21:38:45.225Z,18.50
2018-06-06T21:43:40.544Z,18.30
2018-06-06T21:46:08.220Z,18.30
2018-06-06T21:48:35.853Z,18.20
2018-06-06T21:51:03.422Z,18.20
2018-06-06T21:53:31.057Z,18.10
2018-06-06T21:55:58.659Z,18.10
2018-06-06T21:58:26.283Z,18.00
2018-06-06T22:01:07.746Z,17.90
2018-06-06T22:03:35.382Z,17.90
2018-06-06T22:06:03.236Z,17.80
2018-06-06T22:08:30.836Z,17.80
2018-06-06T22:10:58.712Z,17.80
2018-06-06T22:13:26.319Z,17.70
2018-06-06T22:15:53.957Z,17.70
2018-06-06T22:18:21.587Z,17.60
2018-06-06T22:20:49.269Z,17.60
2018-06-06T22:23:16.955Z,17.50
2018-06-06T22:25:44.557Z,17.50
2018-06-06T22:28:12.126Z,17.40
2018-06-06T22:30:39.758Z,17.30
2018-06-06T22:33:07.322Z,17.30
2018-06-06T22:35:34.945Z,17.20
2018-06-06T22:38:02.578Z,17.10
2018-06-06T22:40:30.212Z,17.10
2018-06-06T22:42:57.813Z,17.10
2018-06-06T22:45:25.396Z,17.10
2018-06-06T22:47:53.055Z,17.10
2018-06-06T22:52:54.895Z,16.90
2018-06-06T22:55:22.428Z,16.80
2018-06-06T22:57:50.065Z,16.70
2018-06-06T23:00:22.100Z,16.70
2018-06-06T23:02:49.722Z,16.60
2018-06-06T23:05:17.354Z,16.60
2018-06-06T23:07:45.042Z,16.60
2018-06-06T23:10:12.590Z,16.50
2018-06-06T23:12:40.154Z,16.50
2018-06-06T23:15:07.772Z,16.40
2018-06-06T23:17:35.379Z,16.40
2018-06-06T23:20:03.458Z,16.30
2018-06-06T23:22:31.129Z,16.30
2018-06-06T23:24:58.785Z,16.30
2018-06-06T23:27:26.373Z,16.20
2018-06-06T23:29:53.963Z,16.30
2018-06-06T23:32:21.525Z,16.20
2018-06-06T23:34:49.320Z,16.20
2018-06-06T23:37:16.921Z,16.20
2018-06-06T23:39:45.472Z,16.20
2018-06-06T23:42:13.048Z,16.20
2018-06-06T23:44:40.652Z,16.20
2018-06-06T23:47:08.260Z,16.20
2018-06-06T23:49:35.876Z,16.20
2018-06-06T23:52:03.512Z,16.10
2018-06-06T23:54:31.063Z,16.20
2018-06-06T23:56:58.606Z,16.10
2018-06-06T23:59:26.246Z,16.20
